Terminal Aerodrome Forecast
Issued by NWS

Home | Current Version | Previous Version | Text Only | Print | Product List | Glossary On
Versions: 1 2 3 4 5 6 7 8 9 10 11 12 13 14 15 16
000
FTPA31 PHFO 170257 AAA
TAFHOG
TAF AMD
PHOG 170257Z 1703/1724 07020G28KT P6SM FEW030 SCT050
     FM170500 05014G24KT P6SM FEW025 SCT050
     FM171900 06023G32KT P6SM FEW025 SCT050=

USA.gov is the U.S. government's official web portal to all federal, state and local government web resources and services.